Wetterdaten: April 2015
Datum Temp Feuchte Luftdruck Regen Wind Richtung Sonnenschein UV Solar Windben
01.04.2015 2,2 C 89 % 1013,8 hPa 4,8 l/m 9,4 km/h NW 1,33 h 1,2 UV-I 147 W/m 18,5 km/h
02.04.2015 2,3 C 85 % 1014,4 hPa 16,6 l/m 5,6 km/h N-NW 3,50 h 1,8 UV-I 219 W/m 17,7 km/h
03.04.2015 3,1 C 82 % 1018,8 hPa 2,0 l/m 0,9 km/h W-SW 5,00 h 2,0 UV-I 298 W/m 4,8 km/h
04.04.2015 3,6 C 74 % 1018,4 hPa 0,0 l/m 0,8 km/h N-NO 4,75 h 2,1 UV-I 311 W/m 4,0 km/h
05.04.2015 2,2 C 72 % 1024,6 hPa 0,2 l/m 2,3 km/h N-NO 7,00 h 1,8 UV-I 334 W/m 5,2 km/h
06.04.2015 3,8 C 75 % 1030,4 hPa 0,0 l/m 0,8 km/h N-NO 3,25 h 1,5 UV-I 222 W/m 2,8 km/h
07.04.2015 6,1 C 73 % 1034,5 hPa 0,0 l/m 2,5 km/h W 6,75 h 1,9 UV-I 296 W/m 10,5 km/h
08.04.2015 8,8 C 81 % 1032,3 hPa 0,0 l/m 0,5 km/h NW 2,92 h 2,1 UV-I 236 W/m 4,0 km/h
09.04.2015 10,9 C 78 % 1026,0 hPa 0,0 l/m 0,1 km/h S-SO 10,17 h 2,5 UV-I 410 W/m 2,0 km/h
10.04.2015 12,4 C 69 % 1019,0 hPa 0,0 l/m 0,9 km/h S-SO 10,92 h 2,6 UV-I 415 W/m 2,0 km/h
11.04.2015 10,0 C 76 % 1019,3 hPa 3,6 l/m 11,3 km/h S-SW 4,25 h 1,8 UV-I 238 W/m 21,8 km/h
12.04.2015 8,6 C 60 % 1026,0 hPa 0,2 l/m 1,6 km/h S-SW 11,50 h 2,5 UV-I 422 W/m 6,0 km/h
13.04.2015 6,1 C 72 % 1029,4 hPa 0,4 l/m 2,0 km/h N-NW 8,83 h 2,3 UV-I 381 W/m 9,6 km/h
14.04.2015 12,0 C 63 % 1023,7 hPa 0,0 l/m 2,8 km/h W 10,17 h 2,7 UV-I 440 W/m 6,8 km/h
15.04.2015 16,3 C 52 % 1014,7 hPa 0,0 l/m 2,8 km/h SW 11,17 h 2,5 UV-I 447 W/m 8,8 km/h
16.04.2015 8,6 C 73 % 1014,7 hPa 0,0 l/m 1,6 km/h N-NW 1,58 h 1,4 UV-I 187 W/m 4,0 km/h
17.04.2015 5,3 C 75 % 1018,2 hPa 0,0 l/m 3,2 km/h N 5,00 h 1,8 UV-I 294 W/m 7,2 km/h
18.04.2015 5,9 C 71 % 1025,3 hPa 0,0 l/m 0,5 km/h N 10,25 h 2,1 UV-I 448 W/m 2,8 km/h
19.04.2015 8,1 C 63 % 1022,8 hPa 0,0 l/m 0,7 km/h N-NO 10,08 h 2,4 UV-I 419 W/m 4,0 km/h
20.04.2015 10,2 C 64 % 1026,9 hPa 0,0 l/m 1,5 km/h N-NW 11,42 h 2,8 UV-I 458 W/m 4,0 km/h
21.04.2015 11,5 C 57 % 1028,9 hPa 0,0 l/m 2,7 km/h N-NW 11,67 h 2,8 UV-I 448 W/m 8,0 km/h
22.04.2015 6,3 C 81 % 1024,9 hPa 0,0 l/m 0,8 km/h N-NW 2,00 h 1,4 UV-I 184 W/m 5,3 km/h
23.04.2015 8,1 C 76 % 1018,0 hPa 0,0 l/m 0,3 km/h W-NW 11,50 h 2,7 UV-I 460 W/m 1,6 km/h
24.04.2015 11,3 C 66 % 1011,8 hPa 0,0 l/m 1,4 km/h S-SW 10,83 h 2,6 UV-I 431 W/m 5,2 km/h
25.04.2015 10,8 C 88 % 1007,6 hPa 4,0 l/m 0,0 km/h S-SW 1,33 h 1,5 UV-I 163 W/m 0,0 km/h
26.04.2015 11,2 C 90 % 1005,4 hPa 2,2 l/m 0,3 km/h S-SW 2,25 h 1,9 UV-I 248 W/m 1,2 km/h
27.04.2015 7,3 C 94 % 1006,1 hPa 12,2 l/m 2,8 km/h N 0,00 h 0,7 UV-I 63 W/m 8,8 km/h
28.04.2015 5,6 C 74 % 1016,5 hPa 0,2 l/m 1,0 km/h W-SW 8,67 h 2,6 UV-I 389 W/m 4,4 km/h
29.04.2015 7,3 C 70 % 1017,0 hPa 0,0 l/m 2,4 km/h S 11,33 h 2,5 UV-I 417 W/m 6,4 km/h
30.04.2015 7,0 C 84 % 1011,4 hPa 7,4 l/m 3,5 km/h S 2,08 h 1,4 UV-I 182 W/m 5,6 km/h
Min-Datum 07.04.15 21.04.15 27.04.15 12 Tage 01.04.15 - - - - 01.04.15
Min-Zeit 07:15 16:35 05:45 - 21:00 - - - - 21:00
Minimum -2,8 C 25 % 1001,1 hPa - 0,0 km/h - - - - 0,0 km/h
Max-Datum 15.04.15 03.04.15 07.04.15 02.04.15 02.04.15 - 21.04.15 03.04.15 17.04.15 02.04.15
Max-Zeit 15:55 09:05 08:45 03:00 13:20 - 19:20 13:10 12:30 13:20
Maximum 22,3 C 100 % 1036,8 hPa 16,6 l/m 29,0 km/h
N-NW
- 11,58 h 5,6 UV-I 1107 W/m 57,9 km/h
N-NW
Durchschnitt 7,8 C 74 % 1020,0 hPa #53,8 l/m 2,2 km/h N-NW #201:30 h 2,1 UV-I 320 W/m 6,4 km/h

Durchschnitt Minimum Temp.2,0 C
Durchschnitt Maximum Temp.14,3 C